Airfield :
LOGIN :

Register | Disclaimer

   EN    FR    IT 

 










Legend :    VFR   Marginal VFR   IFR   Intensive IFR   Very Intensive IFR
Visi :
Ceiling :
>= 8 km
>= 3000ft
5 to 8 km
1000 to 3000 ft
1500m to 5 km
500 to 1000 ft
800 to 1500m
200 to 500 ft
< 800m
< 200 ft
Symbols :   Thunderstorms  Fog  Heavy snow  Heavy precipitations  Wind > 20 kt
SIGMETs :     Misc.  Thunderstorms  Icing  Turbulence  Mountain Waves  Volcanic Ashes







- Airport Elevation : 1276 ft
- IATA code : STR


EDDS - Stuttgart

CURRENT METAR :
  • 201850Z VRB02KT 6000 -SN FEW005 SCT030 OVC048 01/00 Q0997 RESN BECMG BKN010

EXPIRED METARs :
  • 201820Z 18002KT 2200 SN SCT004 OVC006 01/00 Q0997 TEMPO BKN004
  • 201750Z VRB01KT 3500 -SNRA BKN006 OVC010 02/01 Q0997 RERA TEMPO SN BKN004
  • 201720Z 20005KT 170V260 8000 RA SCT007 OVC010 02/01 Q0997 BECMG -RASN
  • 201650Z 14005KT 110V170 9999 -RA FEW007 BKN011 OVC015 03/01 Q0998 NOSIG
  • 201620Z 14005KT 110V170 9999 -RA FEW009 BKN011 OVC024 03/02 Q0998 NOSIG

TAF AMD TAF EDDS
Valid from the 20 at 18:00 until the 21 at 18:00 UTC


201822Z 2018/2118 15005KT 9999 BKN015
TEMPO 2018/2109 4000 RASN BKN012
PROB40
TEMPO 2018/2104 2500 SN OVC004
BECMG 2022/2024 28010KT
No reported NOTAMs for that airfield.
2 SIGMETs reported for the Langen FIR (EDGG) :
 
Severe turbulence
EDGG SIGMET 4 VALID 201816/202100 EDZF
EDGG LANGEN FIR SEV TURB FCST SW OF LINE N5045 E00800 - N5220 E00705 FL180/300 MOV ENE NC=
Severe turbulence
EDGG SIGMET 3 VALID 201805/202100 EDZF
EDGG LANGEN FIR SEV TURB FCST WI N5048 E00802 - N4755 E00852 - N4736 E00741 - N4900 E00809 - N4911 E00644 - N5025 E00620 - N5025 E00621 - N5048 E00802 FL180/300 MOV ENE NC=



MET'MAP, your aeronautical weather chart ! - Copyright ORBIFLY December 2007 - Disclaimer

ORBIFLY MET'MAP TEAM :

Programming & Development : Alexandra Zaïnal
Concept & Development : Baudouin d'Aumeries
Co-Development & Prog : Marc-Olivier Méhu
Technical & hardware support : Manuel Goepfert

Contact : metmap@orbifly.com




SOURCES & CREDITS :

   NOAA